Time;durP1;ratioP1;P1;durP2;ratioP2;P2;SDS_P1;SDS_P2;PMS_P1;PMS_P2;Temp;Humidity;BMP_temperature;BMP_pressure;BME280_temperature;BME280_humidity;BME280_pressure;Samples;Min_cycle;Max_cycle;Signal;HPM_P1;HPM_P2
2021/07/25 00:00:38;;;;;;;8.77;5.05;;;;;;;;;;5054199;28;20021;-75
2021/07/25 00:03:04;;;;;;;6.85;3.88;;;;;;;;;;5053802;28;20021;-77
2021/07/25 00:05:31;;;;;;;7.43;4.80;;;;;;;;;;5053809;28;20104;-74
2021/07/25 00:07:57;;;;;;;8.63;4.90;;;;;;;;;;5054327;28;20043;-73
2021/07/25 00:10:23;;;;;;;8.10;4.40;;;;;;;;;;5053387;28;20056;-75
2021/07/25 00:12:49;;;;;;;9.82;5.03;;;;;;;;;;5035855;28;20409;-73
2021/07/25 00:15:15;;;;;;;9.60;4.53;;;;;;;;;;5053976;28;20013;-75
2021/07/25 00:17:41;;;;;;;9.77;4.65;;;;;;;;;;5053873;28;20032;-74
2021/07/25 00:20:09;;;;;;;7.55;4.35;;;;;;;;;;5053574;28;20381;-73
2021/07/25 00:22:35;;;;;;;10.43;4.38;;;;;;;;;;5053462;28;20029;-75
2021/07/25 00:25:23;;;;;;;6.90;4.20;;;;;;;;;;5053536;28;20017;-74
2021/07/25 00:27:54;;;;;;;7.40;3.58;;;;;;;;;;5053176;28;20037;-76
2021/07/25 00:30:21;;;;;;;8.00;4.30;;;;;;;;;;5054072;28;20025;-74
2021/07/25 00:32:48;;;;;;;9.88;4.03;;;;;;;;;;5053699;28;20056;-76
2021/07/25 00:35:14;;;;;;;8.65;3.95;;;;;;;;;;5053872;28;20070;-74
2021/07/25 00:37:43;;;;;;;8.65;3.60;;;;;;;;;;5053604;28;20025;-75
2021/07/25 00:40:13;;;;;;;8.00;3.90;;;;;;;;;;5052550;28;20071;-75
2021/07/25 00:42:40;;;;;;;7.78;4.00;;;;;;;;;;5053439;28;20028;-72
2021/07/25 00:45:07;;;;;;;9.77;4.85;;;;;;;;;;5053227;28;20043;-75
2021/07/25 00:47:33;;;;;;;7.38;4.07;;;;;;;;;;5053441;28;20492;-74
2021/07/25 00:49:59;;;;;;;9.93;4.10;;;;;;;;;;5053195;28;20385;-74
2021/07/25 00:52:25;;;;;;;9.00;4.00;;;;;;;;;;5053421;28;20083;-76
2021/07/25 00:54:51;;;;;;;8.77;4.18;;;;;;;;;;5053318;28;20359;-76
2021/07/25 00:57:17;;;;;;;7.53;4.20;;;;;;;;;;5053614;28;20036;-78
2021/07/25 00:59:43;;;;;;;7.70;3.80;;;;;;;;;;5053080;28;20021;-74
2021/07/25 01:02:09;;;;;;;6.55;4.03;;;;;;;;;;5053035;28;20032;-74
2021/07/25 01:04:51;;;;;;;7.68;4.35;;;;;;;;;;5052945;28;20032;-74
2021/07/25 01:07:20;;;;;;;6.22;4.20;;;;;;;;;;5053564;28;20108;-74
2021/07/25 01:09:51;;;;;;;8.18;3.97;;;;;;;;;;5053065;28;20132;-74
2021/07/25 01:12:19;;;;;;;7.13;4.18;;;;;;;;;;5053281;28;20021;-77
2021/07/25 01:14:45;;;;;;;7.55;4.32;;;;;;;;;;5052943;28;20025;-76
2021/07/25 01:17:23;;;;;;;7.75;4.38;;;;;;;;;;5052951;28;20032;-76
2021/07/25 01:19:49;;;;;;;6.30;4.03;;;;;;;;;;5053174;28;20382;-75
2021/07/25 01:22:16;;;;;;;10.20;4.60;;;;;;;;;;5052850;28;20528;-75
2021/07/25 01:24:42;;;;;;;6.82;4.03;;;;;;;;;;5053026;28;20029;-76
2021/07/25 01:27:11;;;;;;;8.68;4.47;;;;;;;;;;5052833;28;20072;-77
2021/07/25 01:29:38;;;;;;;10.38;4.35;;;;;;;;;;5052746;28;20021;-73
2021/07/25 01:32:04;;;;;;;7.40;4.50;;;;;;;;;;5052801;28;20052;-74
2021/07/25 01:34:30;;;;;;;8.50;4.70;;;;;;;;;;5052747;28;20028;-77
2021/07/25 01:36:57;;;;;;;8.38;4.40;;;;;;;;;;5052720;28;20029;-74
2021/07/25 01:39:26;;;;;;;9.77;4.30;;;;;;;;;;5052711;28;20436;-72
2021/07/25 01:41:52;;;;;;;9.02;4.28;;;;;;;;;;5052967;28;20470;-77
2021/07/25 01:44:18;;;;;;;6.20;3.90;;;;;;;;;;5052537;28;20025;-77
2021/07/25 01:46:44;;;;;;;6.53;3.70;;;;;;;;;;5052946;28;20025;-76
2021/07/25 01:49:10;;;;;;;7.65;4.00;;;;;;;;;;5052871;28;20090;-76
2021/07/25 01:51:36;;;;;;;6.85;4.25;;;;;;;;;;5053791;28;20029;-75
2021/07/25 01:54:02;;;;;;;9.82;4.50;;;;;;;;;;5056253;28;20096;-75
2021/07/25 01:56:28;;;;;;;6.28;3.97;;;;;;;;;;5056318;28;20083;-75
2021/07/25 01:58:56;;;;;;;7.45;4.07;;;;;;;;;;5056493;28;20032;-77
2021/07/25 02:01:22;;;;;;;9.18;4.35;;;;;;;;;;5056188;28;20021;-74
2021/07/25 02:03:49;;;;;;;9.80;4.68;;;;;;;;;;5056119;28;20052;-76
2021/07/25 02:06:15;;;;;;;7.82;4.00;;;;;;;;;;5056662;28;20472;-75
2021/07/25 02:08:41;;;;;;;7.05;3.75;;;;;;;;;;5055872;28;20143;-76
2021/07/25 02:11:08;;;;;;;10.05;4.40;;;;;;;;;;5056616;28;20067;-74
2021/07/25 02:13:34;;;;;;;7.95;4.03;;;;;;;;;;5056003;28;20024;-72
2021/07/25 02:16:00;;;;;;;7.20;4.22;;;;;;;;;;5055875;28;20029;-76
2021/07/25 02:18:27;;;;;;;9.70;4.13;;;;;;;;;;5055856;28;20025;-74
2021/07/25 02:20:54;;;;;;;11.13;5.05;;;;;;;;;;5055815;28;20036;-77
2021/07/25 02:23:20;;;;;;;9.35;4.18;;;;;;;;;;5055675;28;20032;-75
2021/07/25 02:25:46;;;;;;;9.32;4.40;;;;;;;;;;5056009;28;20025;-73
2021/07/25 02:28:12;;;;;;;8.70;4.60;;;;;;;;;;5055685;28;20104;-73
2021/07/25 02:30:38;;;;;;;9.30;4.38;;;;;;;;;;5055676;28;20061;-74
2021/07/25 02:33:05;;;;;;;8.68;4.80;;;;;;;;;;5055870;28;20147;-75
2021/07/25 02:35:31;;;;;;;7.50;4.38;;;;;;;;;;5055567;28;20060;-73
2021/07/25 02:37:57;;;;;;;7.53;4.70;;;;;;;;;;5037559;28;20428;-76
2021/07/25 02:40:24;;;;;;;7.97;4.80;;;;;;;;;;5055396;28;20082;-75
2021/07/25 02:42:50;;;;;;;8.15;4.53;;;;;;;;;;5037432;28;20025;-75
2021/07/25 02:45:16;;;;;;;7.82;4.40;;;;;;;;;;5055361;28;20392;-76
2021/07/25 02:47:42;;;;;;;8.40;4.40;;;;;;;;;;5055305;28;20428;-74
2021/07/25 02:50:08;;;;;;;7.80;4.70;;;;;;;;;;5055269;28;20415;-75
2021/07/25 02:52:35;;;;;;;12.10;4.72;;;;;;;;;;5055486;28;20102;-74
2021/07/25 02:55:01;;;;;;;7.28;4.45;;;;;;;;;;5055187;28;20531;-73
2021/07/25 02:57:27;;;;;;;13.05;5.32;;;;;;;;;;5055078;28;20029;-76
2021/07/25 02:59:53;;;;;;;9.70;5.43;;;;;;;;;;5055133;28;20449;-75
2021/07/25 03:02:19;;;;;;;7.50;4.72;;;;;;;;;;5055031;28;20104;-75
2021/07/25 03:04:47;;;;;;;8.75;5.07;;;;;;;;;;5054160;28;20037;-77
2021/07/25 03:07:13;;;;;;;7.85;5.43;;;;;;;;;;5055249;28;20017;-75
2021/07/25 03:09:39;;;;;;;10.27;5.95;;;;;;;;;;5054904;28;20460;-76
2021/07/25 03:12:06;;;;;;;10.77;5.82;;;;;;;;;;5054885;28;20124;-74
2021/07/25 03:14:32;;;;;;;9.60;5.80;;;;;;;;;;5054810;28;20047;-74
2021/07/25 03:16:58;;;;;;;10.00;6.05;;;;;;;;;;5054778;28;20025;-75
2021/07/25 03:19:25;;;;;;;8.50;5.43;;;;;;;;;;5054947;28;20053;-74
2021/07/25 03:21:51;;;;;;;10.65;7.00;;;;;;;;;;5054695;28;20122;-73
2021/07/25 03:24:17;;;;;;;13.07;7.57;;;;;;;;;;5054537;28;20029;-75
2021/07/25 03:26:43;;;;;;;11.70;7.72;;;;;;;;;;5054584;28;20024;-73
2021/07/25 03:29:09;;;;;;;11.60;7.38;;;;;;;;;;5054470;28;20388;-75
2021/07/25 03:31:35;;;;;;;12.77;7.80;;;;;;;;;;5054488;28;20045;-75
2021/07/25 03:34:01;;;;;;;13.23;7.93;;;;;;;;;;5054705;28;20033;-75
2021/07/25 03:36:28;;;;;;;12.05;7.22;;;;;;;;;;5054455;28;20076;-74
2021/07/25 03:38:54;;;;;;;12.45;8.18;;;;;;;;;;5054659;28;20032;-74
2021/07/25 03:41:20;;;;;;;13.30;8.23;;;;;;;;;;5054561;28;20025;-73
2021/07/25 03:43:46;;;;;;;11.70;8.10;;;;;;;;;;5054169;28;20108;-75
2021/07/25 03:46:12;;;;;;;11.95;8.05;;;;;;;;;;5054227;28;20104;-77
2021/07/25 03:48:38;;;;;;;12.43;8.60;;;;;;;;;;5054454;28;20068;-79
2021/07/25 03:51:05;;;;;;;14.68;10.13;;;;;;;;;;5054113;28;20363;-75
2021/07/25 03:53:33;;;;;;;15.40;10.23;;;;;;;;;;5054015;28;20099;-76
2021/07/25 03:55:59;;;;;;;17.67;11.38;;;;;;;;;;5054034;28;20029;-75
2021/07/25 03:58:25;;;;;;;16.10;10.45;;;;;;;;;;5054242;28;20154;-76
2021/07/25 04:00:51;;;;;;;16.85;11.35;;;;;;;;;;5054209;28;20075;-76
2021/07/25 04:03:17;;;;;;;14.90;10.75;;;;;;;;;;5053805;28;20033;-75
2021/07/25 04:05:43;;;;;;;19.52;11.80;;;;;;;;;;5053832;28;20496;-75
2021/07/25 04:08:12;;;;;;;16.35;11.10;;;;;;;;;;5053818;28;20397;-76
2021/07/25 04:10:42;;;;;;;16.35;10.85;;;;;;;;;;5053655;28;20072;-76
2021/07/25 04:13:09;;;;;;;17.17;10.38;;;;;;;;;;5053720;28;20032;-77
2021/07/25 04:15:37;;;;;;;17.98;11.43;;;;;;;;;;5053940;28;20029;-73
2021/07/25 04:18:04;;;;;;;16.73;10.70;;;;;;;;;;5053641;28;20398;-74
2021/07/25 04:20:30;;;;;;;16.38;10.00;;;;;;;;;;5053622;28;20025;-75
2021/07/25 04:22:56;;;;;;;18.45;10.48;;;;;;;;;;5053431;28;20086;-74
2021/07/25 04:25:22;;;;;;;15.27;10.48;;;;;;;;;;5053544;28;20029;-76
2021/07/25 04:27:48;;;;;;;17.02;11.48;;;;;;;;;;5053488;28;20092;-73
2021/07/25 04:30:15;;;;;;;16.63;11.13;;;;;;;;;;5053716;28;20024;-74
2021/07/25 04:32:41;;;;;;;15.35;10.43;;;;;;;;;;5053960;28;20072;-74
2021/07/25 04:35:08;;;;;;;16.40;9.77;;;;;;;;;;5053623;28;20363;-76
2021/07/25 04:37:36;;;;;;;14.88;10.45;;;;;;;;;;5053856;28;20074;-79
2021/07/25 04:40:02;;;;;;;16.15;10.38;;;;;;;;;;5053894;28;20112;-77
2021/07/25 04:42:30;;;;;;;17.42;10.27;;;;;;;;;;5053287;28;20027;-76
2021/07/25 04:45:02;;;;;;;17.52;10.43;;;;;;;;;;5053410;28;20119;-73
2021/07/25 04:47:36;;;;;;;13.32;9.80;;;;;;;;;;5053249;28;20025;-74
2021/07/25 04:50:04;;;;;;;16.02;10.10;;;;;;;;;;5053149;28;20025;-74
2021/07/25 04:52:35;;;;;;;14.50;10.43;;;;;;;;;;5053172;28;20043;-73
2021/07/25 04:55:02;;;;;;;14.68;9.02;;;;;;;;;;5053181;28;20037;-75
2021/07/25 04:57:30;;;;;;;14.45;9.63;;;;;;;;;;5053106;28;20096;-72
2021/07/25 04:59:58;;;;;;;14.60;8.68;;;;;;;;;;5053072;28;20033;-75
2021/07/25 05:02:25;;;;;;;12.88;8.27;;;;;;;;;;5053581;28;20083;-73
2021/07/25 05:04:51;;;;;;;13.52;8.25;;;;;;;;;;5053257;28;20021;-76
2021/07/25 05:07:18;;;;;;;12.55;8.40;;;;;;;;;;5053560;28;20025;-75
2021/07/25 05:09:44;;;;;;;13.25;7.93;;;;;;;;;;5052784;28;20049;-73
2021/07/25 05:12:14;;;;;;;10.88;7.55;;;;;;;;;;5052970;28;20032;-76
2021/07/25 05:14:58;;;;;;;12.50;7.00;;;;;;;;;;5052969;28;20033;-76
2021/07/25 05:17:42;;;;;;;15.23;8.15;;;;;;;;;;5052930;28;20056;-74
2021/07/25 05:20:14;;;;;;;15.07;8.70;;;;;;;;;;5053190;28;20025;-73
2021/07/25 05:22:49;;;;;;;15.07;8.57;;;;;;;;;;5053237;28;20021;-75
2021/07/25 05:25:17;;;;;;;14.05;9.13;;;;;;;;;;5053201;28;20458;-75
2021/07/25 05:27:45;;;;;;;13.50;8.55;;;;;;;;;;5055968;28;20032;-76
2021/07/25 05:30:12;;;;;;;15.60;9.27;;;;;;;;;;5056760;28;20025;-75
2021/07/25 05:32:38;;;;;;;12.98;8.82;;;;;;;;;;5056734;28;20021;-75
2021/07/25 05:35:05;;;;;;;11.73;8.10;;;;;;;;;;5056675;28;20029;-75
2021/07/25 05:37:31;;;;;;;17.48;9.15;;;;;;;;;;5056927;28;20048;-74
2021/07/25 05:39:57;;;;;;;15.05;8.77;;;;;;;;;;5056944;28;20131;-78
2021/07/25 05:42:23;;;;;;;13.57;8.50;;;;;;;;;;5056557;28;20485;-73
2021/07/25 05:44:49;;;;;;;13.95;8.30;;;;;;;;;;5056976;28;20116;-77
2021/07/25 05:47:15;;;;;;;11.70;7.65;;;;;;;;;;5056757;28;20021;-74
2021/07/25 05:49:41;;;;;;;14.02;7.88;;;;;;;;;;5056441;28;20453;-75
2021/07/25 05:52:07;;;;;;;12.45;7.32;;;;;;;;;;5056403;28;20096;-74
2021/07/25 05:54:33;;;;;;;13.15;7.43;;;;;;;;;;5056268;28;20482;-74
2021/07/25 05:56:59;;;;;;;16.10;7.97;;;;;;;;;;5056261;28;20029;-77
2021/07/25 05:59:25;;;;;;;14.60;7.63;;;;;;;;;;5056522;28;20385;-74
2021/07/25 06:01:52;;;;;;;11.55;7.20;;;;;;;;;;5056210;28;20032;-74
2021/07/25 06:04:18;;;;;;;13.05;7.75;;;;;;;;;;5056358;28;20032;-73
2021/07/25 06:06:44;;;;;;;13.23;7.55;;;;;;;;;;5056120;28;20370;-75
2021/07/25 06:09:10;;;;;;;13.65;7.80;;;;;;;;;;5055878;28;20056;-74
2021/07/25 06:11:36;;;;;;;13.50;7.70;;;;;;;;;;5056259;28;20025;-74
2021/07/25 06:14:03;;;;;;;16.92;7.90;;;;;;;;;;5056504;28;20436;-75
2021/07/25 06:16:29;;;;;;;13.95;7.47;;;;;;;;;;5055934;28;20071;-73
2021/07/25 06:18:55;;;;;;;12.50;7.40;;;;;;;;;;5056427;28;20025;-74
2021/07/25 06:21:23;;;;;;;23.75;8.25;;;;;;;;;;5056115;28;20108;-75
2021/07/25 06:23:50;;;;;;;14.38;7.40;;;;;;;;;;5055729;28;20021;-73
2021/07/25 06:26:16;;;;;;;12.85;7.72;;;;;;;;;;5056054;28;20052;-72
2021/07/25 06:28:42;;;;;;;11.90;7.35;;;;;;;;;;5055721;28;20025;-76
2021/07/25 06:31:08;;;;;;;11.70;7.40;;;;;;;;;;5055651;28;20025;-77
2021/07/25 06:33:34;;;;;;;13.63;7.30;;;;;;;;;;5056136;28;20029;-76
2021/07/25 06:36:01;;;;;;;11.98;7.18;;;;;;;;;;5055609;28;20027;-72
2021/07/25 06:38:27;;;;;;;14.57;7.47;;;;;;;;;;5054585;28;20055;-73
2021/07/25 06:40:54;;;;;;;14.65;8.02;;;;;;;;;;5055775;28;20103;-76
2021/07/25 06:43:21;;;;;;;14.50;7.65;;;;;;;;;;5055358;28;20029;-75
2021/07/25 06:45:47;;;;;;;15.05;7.20;;;;;;;;;;5055403;28;20017;-74
2021/07/25 06:48:20;;;;;;;14.23;8.15;;;;;;;;;;5055644;28;20215;-74
2021/07/25 06:50:48;;;;;;;14.25;8.55;;;;;;;;;;5055290;28;20040;-75
2021/07/25 06:53:14;;;;;;;15.02;7.78;;;;;;;;;;5037344;28;20071;-76
2021/07/25 06:55:40;;;;;;;11.32;7.35;;;;;;;;;;5055433;28;20029;-73
2021/07/25 06:58:06;;;;;;;12.77;8.23;;;;;;;;;;5055160;28;20032;-77
2021/07/25 07:00:32;;;;;;;17.80;8.82;;;;;;;;;;5055152;28;20370;-75
2021/07/25 07:02:58;;;;;;;17.17;8.77;;;;;;;;;;5055005;28;20094;-75
2021/07/25 07:05:25;;;;;;;16.10;8.52;;;;;;;;;;5055086;28;20021;-73
2021/07/25 07:07:52;;;;;;;16.15;8.50;;;;;;;;;;5055271;28;20496;-73
2021/07/25 07:10:19;;;;;;;13.93;8.20;;;;;;;;;;5054797;28;20045;-72
2021/07/25 07:12:46;;;;;;;15.00;7.68;;;;;;;;;;5054932;28;20075;-76
2021/07/25 07:15:12;;;;;;;12.05;7.35;;;;;;;;;;5054825;28;20477;-75
2021/07/25 07:17:39;;;;;;;13.05;7.82;;;;;;;;;;5055358;28;20035;-75
2021/07/25 07:20:06;;;;;;;15.88;8.70;;;;;;;;;;5055067;28;20492;-78
2021/07/25 07:22:32;;;;;;;14.68;8.52;;;;;;;;;;5055260;28;20107;-74
2021/07/25 07:24:58;;;;;;;23.40;8.63;;;;;;;;;;5054819;28;20053;-78
2021/07/25 07:27:24;;;;;;;11.52;7.13;;;;;;;;;;5036685;28;20460;-76
2021/07/25 07:29:51;;;;;;;12.90;7.30;;;;;;;;;;5054555;28;20477;-77
2021/07/25 07:32:17;;;;;;;11.10;6.72;;;;;;;;;;5054794;28;20025;-77
2021/07/25 07:34:43;;;;;;;13.05;6.88;;;;;;;;;;5054487;28;20025;-73
2021/07/25 07:37:09;;;;;;;9.68;6.35;;;;;;;;;;5054662;28;20100;-75
2021/07/25 07:39:44;;;;;;;12.48;6.15;;;;;;;;;;5054930;28;20025;-74
2021/07/25 07:42:11;;;;;;;9.98;5.78;;;;;;;;;;5054609;28;20489;-75
2021/07/25 07:44:38;;;;;;;9.93;5.95;;;;;;;;;;5054135;28;20035;-76
2021/07/25 07:47:04;;;;;;;13.02;6.30;;;;;;;;;;5054784;28;20025;-77
2021/07/25 07:49:30;;;;;;;9.05;5.90;;;;;;;;;;5054109;28;20025;-75
2021/07/25 07:51:56;;;;;;;12.65;6.60;;;;;;;;;;5054078;28;20017;-73
2021/07/25 07:54:22;;;;;;;11.18;6.65;;;;;;;;;;5053983;28;20036;-76
2021/07/25 07:56:49;;;;;;;10.65;6.85;;;;;;;;;;5054248;28;20029;-76
2021/07/25 07:59:15;;;;;;;8.15;5.53;;;;;;;;;;5053964;28;20055;-75
2021/07/25 08:01:41;;;;;;;9.90;5.97;;;;;;;;;;5053988;28;20025;-78
2021/07/25 08:04:07;;;;;;;9.65;5.95;;;;;;;;;;5053812;28;20117;-74
2021/07/25 08:06:33;;;;;;;10.75;5.53;;;;;;;;;;5054134;28;20021;-77
2021/07/25 08:08:59;;;;;;;8.95;5.68;;;;;;;;;;5053655;28;20098;-77
2021/07/25 08:11:25;;;;;;;9.18;5.07;;;;;;;;;;5053783;28;20029;-72
2021/07/25 08:13:51;;;;;;;10.65;5.95;;;;;;;;;;5053683;28;20465;-75
2021/07/25 08:16:17;;;;;;;10.65;5.50;;;;;;;;;;5053700;28;20024;-76
2021/07/25 08:18:43;;;;;;;10.90;5.63;;;;;;;;;;5053647;28;20025;-77
2021/07/25 08:21:09;;;;;;;10.13;5.63;;;;;;;;;;5053588;28;20500;-76
2021/07/25 08:23:35;;;;;;;9.27;6.03;;;;;;;;;;5053497;28;20025;-73
2021/07/25 08:26:02;;;;;;;8.05;5.03;;;;;;;;;;5053504;28;20021;-76
2021/07/25 08:28:28;;;;;;;10.27;5.75;;;;;;;;;;5053746;28;20029;-75
2021/07/25 08:30:54;;;;;;;9.55;5.50;;;;;;;;;;5053474;28;20032;-76
2021/07/25 08:33:20;;;;;;;10.40;6.97;;;;;;;;;;5053430;28;20127;-74
2021/07/25 08:35:46;;;;;;;11.77;6.70;;;;;;;;;;5053398;28;20025;-74
2021/07/25 08:38:13;;;;;;;12.45;6.90;;;;;;;;;;5053374;28;20025;-73
2021/07/25 08:40:40;;;;;;;12.13;6.70;;;;;;;;;;5053881;28;20354;-77
2021/07/25 08:43:13;;;;;;;11.02;7.90;;;;;;;;;;5053249;28;20033;-73
2021/07/25 08:45:40;;;;;;;12.02;7.70;;;;;;;;;;5053511;28;20032;-73
2021/07/25 08:48:14;;;;;;;12.73;7.20;;;;;;;;;;5053219;28;20032;-76
2021/07/25 08:50:44;;;;;;;12.93;8.10;;;;;;;;;;5053765;28;20017;-74
2021/07/25 08:53:10;;;;;;;;;;;;;;;;;;5053622;28;20021;-76
2021/07/25 08:55:36;;;;;;;13.40;7.85;;;;;;;;;;5053115;28;20311;-77
2021/07/25 08:58:07;;;;;;;11.98;7.60;;;;;;;;;;5053113;28;20040;-76
2021/07/25 09:00:33;;;;;;;12.27;7.88;;;;;;;;;;5053429;28;20025;-76
2021/07/25 09:03:01;;;;;;;14.68;9.05;;;;;;;;;;5052560;28;20037;-74
2021/07/25 09:05:27;;;;;;;13.98;8.43;;;;;;;;;;5053031;28;20033;-75
2021/07/25 09:07:53;;;;;;;12.48;8.63;;;;;;;;;;5053332;28;20420;-74
2021/07/25 09:10:20;;;;;;;12.02;8.40;;;;;;;;;;5052811;28;20123;-73
2021/07/25 09:12:47;;;;;;;12.27;8.73;;;;;;;;;;5052966;28;20024;-74
2021/07/25 09:15:22;;;;;;;14.45;8.02;;;;;;;;;;5053249;28;20033;-76
2021/07/25 09:17:48;;;;;;;12.73;8.00;;;;;;;;;;5053308;28;20028;-75
2021/07/25 09:20:45;;;;;;;12.90;8.90;;;;;;;;;;5053187;28;20056;-75
2021/07/25 09:23:13;;;;;;;12.32;8.95;;;;;;;;;;5044286;28;20060;-74
2021/07/25 09:25:39;;;;;;;11.50;8.00;;;;;;;;;;5052745;28;20024;-76
2021/07/25 09:28:19;;;;;;;13.05;8.40;;;;;;;;;;5053381;28;20025;-76
2021/07/25 09:30:45;;;;;;;13.10;8.35;;;;;;;;;;5053400;28;20095;-73
2021/07/25 09:33:37;;;;;;;12.27;8.27;;;;;;;;;;5052809;28;20095;-76
2021/07/25 09:36:03;;;;;;;12.25;8.05;;;;;;;;;;5050793;28;20050;-75
2021/07/25 09:38:30;;;;;;;12.75;7.38;;;;;;;;;;5053079;28;20377;-78
2021/07/25 09:40:56;;;;;;;12.18;8.25;;;;;;;;;;5052746;28;20025;-76
2021/07/25 09:43:25;;;;;;;11.98;8.77;;;;;;;;;;5053159;28;20420;-76
2021/07/25 09:45:54;;;;;;;13.30;7.95;;;;;;;;;;5052713;28;20029;-74
2021/07/25 09:48:24;;;;;;;10.75;7.97;;;;;;;;;;5052683;28;20032;-78
2021/07/25 09:50:51;;;;;;;10.90;8.13;;;;;;;;;;5052616;28;20101;-74
2021/07/25 09:53:18;;;;;;;11.18;8.57;;;;;;;;;;5052541;28;20071;-76
2021/07/25 09:55:44;;;;;;;12.18;7.78;;;;;;;;;;5052766;28;20033;-74
2021/07/25 09:58:11;;;;;;;12.27;8.45;;;;;;;;;;5052566;28;20100;-75
2021/07/25 10:00:38;;;;;;;12.70;8.10;;;;;;;;;;5052518;28;20029;-76
2021/07/25 10:03:21;;;;;;;10.85;7.53;;;;;;;;;;5034511;28;20371;-77
2021/07/25 10:05:53;;;;;;;11.38;7.47;;;;;;;;;;5052766;28;20082;-77
2021/07/25 10:08:21;;;;;;;8.25;6.07;;;;;;;;;;5052517;28;20053;-74
2021/07/25 10:10:49;;;;;;;9.70;6.50;;;;;;;;;;5052087;28;20532;-76
2021/07/25 10:13:20;;;;;;;8.97;6.43;;;;;;;;;;5054604;28;20025;-74
2021/07/25 10:15:53;;;;;;;11.27;6.22;;;;;;;;;;5056317;28;20466;-76
2021/07/25 10:18:21;;;;;;;8.95;6.20;;;;;;;;;;5056548;28;20028;-77
2021/07/25 10:20:47;;;;;;;9.77;7.22;;;;;;;;;;5056195;28;20120;-78
2021/07/25 10:23:15;;;;;;;11.23;7.22;;;;;;;;;;5056263;28;20103;-79
2021/07/25 10:25:43;;;;;;;11.55;8.65;;;;;;;;;;5056056;28;20036;-77
2021/07/25 10:28:11;;;;;;;11.05;7.60;;;;;;;;;;5055989;28;20025;-77
2021/07/25 10:30:38;;;;;;;9.77;7.05;;;;;;;;;;5055718;28;20488;-74
2021/07/25 10:33:05;;;;;;;10.93;7.00;;;;;;;;;;5055639;28;20098;-77
2021/07/25 10:35:31;;;;;;;11.43;7.03;;;;;;;;;;5055855;28;20474;-78
2021/07/25 10:38:01;;;;;;;11.77;6.72;;;;;;;;;;5055631;28;20430;-76
2021/07/25 10:40:28;;;;;;;11.20;7.45;;;;;;;;;;5055856;28;20466;-78
2021/07/25 10:42:54;;;;;;;10.25;7.28;;;;;;;;;;5055486;28;20071;-76
2021/07/25 10:45:20;;;;;;;12.30;8.40;;;;;;;;;;5055350;28;20029;-73
2021/07/25 10:47:47;;;;;;;12.18;8.32;;;;;;;;;;5037506;28;20389;-77
2021/07/25 10:50:16;;;;;;;11.85;7.75;;;;;;;;;;5055374;28;20075;-77
2021/07/25 10:52:45;;;;;;;12.23;8.60;;;;;;;;;;5055360;28;20443;-74
2021/07/25 10:55:31;;;;;;;10.43;7.78;;;;;;;;;;5055500;28;20063;-75
2021/07/25 10:58:03;;;;;;;13.23;8.35;;;;;;;;;;5055149;28;20100;-73
2021/07/25 11:00:50;;;;;;;12.20;7.50;;;;;;;;;;5055127;28;20028;-78
2021/07/25 11:03:25;;;;;;;10.20;7.45;;;;;;;;;;5055035;28;20051;-77
2021/07/25 11:06:01;;;;;;;9.15;6.95;;;;;;;;;;5055021;28;20477;-75
2021/07/25 11:08:34;;;;;;;12.27;7.70;;;;;;;;;;5055547;28;20053;-73
2021/07/25 11:11:00;;;;;;;10.80;7.20;;;;;;;;;;5054899;28;20033;-75
2021/07/25 11:13:39;;;;;;;10.90;7.70;;;;;;;;;;5054884;28;20032;-74
2021/07/25 11:16:23;;;;;;;13.95;8.77;;;;;;;;;;5054872;28;20497;-75
2021/07/25 11:18:49;;;;;;;12.60;8.65;;;;;;;;;;5053504;28;20025;-77
2021/07/25 11:21:30;;;;;;;10.80;7.65;;;;;;;;;;5055024;28;20028;-75
2021/07/25 11:23:57;;;;;;;11.88;8.85;;;;;;;;;;5054668;28;20442;-74
2021/07/25 11:26:33;;;;;;;11.82;8.63;;;;;;;;;;5054621;28;20057;-78
2021/07/25 11:29:00;;;;;;;11.68;8.07;;;;;;;;;;5055217;28;20021;-75
2021/07/25 11:31:33;;;;;;;13.82;8.57;;;;;;;;;;5054561;28;20025;-75
2021/07/25 11:33:59;;;;;;;13.20;9.85;;;;;;;;;;5054503;28;20024;-77
2021/07/25 11:36:25;;;;;;;12.55;8.82;;;;;;;;;;5054452;28;20115;-76
2021/07/25 11:38:55;;;;;;;14.63;8.82;;;;;;;;;;5054397;28;20477;-76
2021/07/25 11:41:23;;;;;;;14.18;9.70;;;;;;;;;;5054369;28;20025;-75
2021/07/25 11:43:50;;;;;;;13.77;9.63;;;;;;;;;;5054269;28;20379;-78
2021/07/25 11:46:22;;;;;;;14.43;10.00;;;;;;;;;;5054578;28;20029;-75
2021/07/25 11:48:48;;;;;;;14.05;9.38;;;;;;;;;;5054224;28;20021;-77
2021/07/25 11:51:22;;;;;;;10.20;8.05;;;;;;;;;;5054183;28;20028;-78
2021/07/25 11:53:48;;;;;;;10.13;8.23;;;;;;;;;;5054048;28;20102;-76
2021/07/25 11:56:15;;;;;;;11.90;8.65;;;;;;;;;;5054095;28;20057;-74
2021/07/25 11:58:58;;;;;;;11.55;9.07;;;;;;;;;;5052781;28;20040;-76
2021/07/25 12:01:24;;;;;;;11.77;8.55;;;;;;;;;;5054367;28;20098;-73
2021/07/25 12:03:50;;;;;;;12.18;9.68;;;;;;;;;;5053888;28;20029;-76
2021/07/25 12:06:18;;;;;;;11.77;8.68;;;;;;;;;;5053862;28;20094;-76
2021/07/25 12:09:03;;;;;;;11.68;9.43;;;;;;;;;;5053657;28;20473;-74
2021/07/25 12:11:29;;;;;;;14.73;11.38;;;;;;;;;;5054112;28;20025;-75
2021/07/25 12:13:55;;;;;;;13.55;10.75;;;;;;;;;;5054345;28;20033;-74
2021/07/25 12:16:21;;;;;;;19.10;12.50;;;;;;;;;;5053716;28;20029;-73
2021/07/25 12:18:47;;;;;;;18.73;15.65;;;;;;;;;;5053668;28;20033;-75
2021/07/25 12:21:31;;;;;;;15.77;12.60;;;;;;;;;;5053647;28;20053;-75
2021/07/25 12:24:00;;;;;;;14.40;11.48;;;;;;;;;;5053830;28;20029;-77
2021/07/25 12:26:39;;;;;;;12.75;9.48;;;;;;;;;;5053564;28;20021;-77
2021/07/25 12:29:24;;;;;;;11.48;9.07;;;;;;;;;;5053483;28;20481;-75
2021/07/25 12:31:50;;;;;;;10.55;7.53;;;;;;;;;;5053756;28;20385;-74
2021/07/25 12:34:22;;;;;;;10.07;7.32;;;;;;;;;;5053448;28;20031;-74
2021/07/25 12:36:48;;;;;;;11.57;8.82;;;;;;;;;;5052802;28;20052;-73
2021/07/25 12:39:18;;;;;;;10.73;8.60;;;;;;;;;;5053670;28;20083;-77
2021/07/25 12:41:44;;;;;;;13.73;11.48;;;;;;;;;;5053679;28;20021;-77
2021/07/25 12:44:10;;;;;;;13.45;10.43;;;;;;;;;;5053271;28;20041;-75
2021/07/25 12:46:36;;;;;;;13.23;9.40;;;;;;;;;;5053273;28;20543;-77
2021/07/25 12:49:05;;;;;;;17.08;9.52;;;;;;;;;;5053493;28;20021;-74
2021/07/25 12:51:44;;;;;;;11.17;9.13;;;;;;;;;;5053504;28;20448;-77
2021/07/25 12:54:12;;;;;;;10.40;7.82;;;;;;;;;;5053481;28;20037;-76
2021/07/25 12:56:38;;;;;;;11.38;7.97;;;;;;;;;;5053136;28;20063;-75
2021/07/25 12:59:06;;;;;;;11.43;8.30;;;;;;;;;;5053115;28;20493;-76
2021/07/25 13:03:59;;;;;;;12.25;9.57;;;;;;;;;;5053284;28;20231;-77
2021/07/25 13:06:25;;;;;;;11.98;8.85;;;;;;;;;;5053601;28;20151;-78
2021/07/25 13:08:53;;;;;;;14.38;10.15;;;;;;;;;;5052839;28;20538;-78
2021/07/25 13:11:19;;;;;;;14.82;11.68;;;;;;;;;;5053023;28;20035;-75
2021/07/25 13:13:46;;;;;;;14.35;10.43;;;;;;;;;;5053276;28;20446;-76
2021/07/25 13:16:15;;;;;;;13.98;9.52;;;;;;;;;;5053217;28;20025;-73
2021/07/25 13:18:42;;;;;;;15.23;12.00;;;;;;;;;;5052978;28;20027;-77
2021/07/25 13:21:08;;;;;;;15.63;11.13;;;;;;;;;;5052928;28;20033;-76
2021/07/25 13:23:35;;;;;;;15.27;11.20;;;;;;;;;;5052867;28;20033;-76
2021/07/25 13:26:01;;;;;;;15.07;11.50;;;;;;;;;;5052875;28;20075;-76
2021/07/25 13:28:27;;;;;;;14.60;10.68;;;;;;;;;;5052862;28;20025;-77
2021/07/25 13:30:53;;;;;;;13.30;10.35;;;;;;;;;;5034966;28;20393;-77
2021/07/25 13:33:20;;;;;;;12.57;9.85;;;;;;;;;;5052806;28;20025;-76
2021/07/25 13:35:48;;;;;;;14.65;10.25;;;;;;;;;;5052837;28;20630;-76
2021/07/25 13:38:14;;;;;;;12.10;9.77;;;;;;;;;;5052800;28;20388;-75
2021/07/25 13:40:40;;;;;;;14.35;10.15;;;;;;;;;;5052678;28;20104;-73
2021/07/25 13:43:11;;;;;;;13.13;10.45;;;;;;;;;;5052949;28;20070;-76
2021/07/25 13:45:37;;;;;;;14.45;10.30;;;;;;;;;;5052759;28;20028;-76
2021/07/25 13:48:03;;;;;;;13.68;10.32;;;;;;;;;;5054319;28;20417;-74
2021/07/25 13:50:31;;;;;;;13.38;10.35;;;;;;;;;;5056379;28;20043;-76
2021/07/25 13:52:57;;;;;;;13.52;10.80;;;;;;;;;;5056387;28;20036;-74
2021/07/25 13:55:23;;;;;;;12.68;10.10;;;;;;;;;;5056347;28;20025;-75
2021/07/25 13:57:49;;;;;;;14.07;10.93;;;;;;;;;;5056589;28;20040;-77
2021/07/25 14:00:15;;;;;;;13.48;9.95;;;;;;;;;;5056560;28;20025;-74
2021/07/25 14:02:41;;;;;;;12.88;9.38;;;;;;;;;;5056546;28;20044;-76
2021/07/25 14:05:07;;;;;;;12.07;10.20;;;;;;;;;;5056128;28;20104;-76
2021/07/25 14:07:33;;;;;;;11.45;8.68;;;;;;;;;;5056743;28;20025;-75
2021/07/25 14:09:59;;;;;;;12.63;8.85;;;;;;;;;;5055925;28;20052;-74
2021/07/25 14:12:25;;;;;;;10.52;8.05;;;;;;;;;;5056093;28;20025;-75
2021/07/25 14:14:51;;;;;;;11.63;8.45;;;;;;;;;;5056057;28;20025;-75
2021/07/25 14:17:17;;;;;;;11.57;9.18;;;;;;;;;;5056327;28;20036;-75
2021/07/25 14:19:43;;;;;;;12.82;7.53;;;;;;;;;;5055967;28;20496;-73
2021/07/25 14:22:09;;;;;;;9.52;7.20;;;;;;;;;;5056178;28;20044;-76
2021/07/25 14:24:35;;;;;;;10.75;8.50;;;;;;;;;;5055779;28;20025;-77
2021/07/25 14:27:01;;;;;;;11.82;8.70;;;;;;;;;;5055948;28;20099;-76
2021/07/25 14:29:27;;;;;;;11.40;7.85;;;;;;;;;;5055875;28;20052;-76
2021/07/25 14:31:53;;;;;;;11.38;8.93;;;;;;;;;;5055338;28;20488;-76
2021/07/25 14:34:19;;;;;;;11.90;7.82;;;;;;;;;;5055606;28;20029;-76
2021/07/25 14:36:45;;;;;;;12.02;7.95;;;;;;;;;;5055655;28;20025;-76